Aérodrome :
LOGIN :

S'inscrire | Disclaimer

   EN    FR    IT 

 










Légende :    VFR   VFR Marginal   IFR   IFR Intensif   IFR Très Intensif
Visi : 
Plafond : 
>= 8 km
>= 3000ft
5 à 8 km
1000 à 3000 ft
1500m à 5 km
500 à 1000 ft
800 à 1500m
200 à 500 ft
< 800m
< 200 ft
Symboles :   Orages  Brouillard  Fortes neiges  Fortes précipitations  Vent > 20 kt
SIGMETs :   Divers  Orages  Givrage  Turbulence  Onde Orograph.  Cendres Volcan.







- Altitude de l'aérodrome : 17 ft
- Code IATA : GRQ


EHGG - Groningen Eelde

DERNIER METAR :
  • 171655Z AUTO 20010KT 170V230 5000 -RA FEW005 BKN006 OVC008 18/17 Q1012 RERA REDZ TEMPO RADZ

METARs EXPIRÉS :
  • 171625Z AUTO 21012KT 180V240 7000 -RA FEW006 SCT008 BKN010 FEW015CB 18/17 Q1012 RERA REDZ TEMPO 6000 RADZ BKN008
  • 171555Z AUTO 21011KT 180V240 9999 -RA FEW009 BKN010 BKN013 18/17 Q1012 TEMPO 6000 RADZ BKN008
  • 171525Z AUTO 21011KT 180V240 9999 BKN010/// OVC012/// 18/17 Q1012 TEMPO -RADZ BKN008
  • 171455Z AUTO 21013KT 9999 BKN011 OVC013 18/16 Q1012 TEMPO BKN008
  • 171425Z AUTO 20013KT 9999 FEW011 BKN013 BKN016 18/17 Q1012 TEMPO BKN008

TAF TAF EHGG
Valide du 17 à 12h jusqu'au 18 à 18h UTC


171042Z 1712/1818 21014KT 8000 -RA OVC030
TEMPO 1712/1718 4000 RADZ SHRA BKN012 SCT015CB
BECMG 1717/1720 9999 NSW SCT020
BECMG 1801/1803 19008KT 4000 BR BKN012
PROB40
TEMPO 1802/1806 2000 BKN004
TEMPO 1806/1809 SHRA RA BKN006 BKN015CB
BECMG 1808/1810 23015KT 9999 NSW SCT025
PROB30
TEMPO 1814/1817 7000 SHRA FEW020TCU BKN030
Pas de NOTAMs connus pour ce terrain.



MET'MAP, la Météo Aéronautique d'un coup d'oeil ! - Copyright ORBIFLY Décembre 2007 - Disclaimer

ORBIFLY MET'MAP TEAM :

Programmation & Développement : Alexandra Zaïnal
Conception & Développement : Baudouin d'Aumeries
Co-Programmation & Développement : Marc-Olivier Méhu
Soutien technique & logistique : Manuel Goepfert

Contact : metmap@orbifly.com




SOURCES & CREDITS :

   NOAA